sensor_id;sensor_type;location;lat;lon;timestamp;pressure;altitude;pressure_sealevel;temperature;humidity
7532;BME280;3807;49.030;8.714;2023-07-29T00:02:07;98829.28;;;20.59;72.44
7532;BME280;3807;49.030;8.714;2023-07-29T00:04:32;98826.28;;;20.54;72.51
7532;BME280;3807;49.030;8.714;2023-07-29T00:06:58;98822.72;;;20.55;72.48
7532;BME280;3807;49.030;8.714;2023-07-29T00:09:23;98827.91;;;20.55;72.34
7532;BME280;3807;49.030;8.714;2023-07-29T00:11:49;98825.19;;;20.56;72.30
7532;BME280;3807;49.030;8.714;2023-07-29T00:14:14;98820.81;;;20.57;72.16
7532;BME280;3807;49.030;8.714;2023-07-29T00:16:39;98821.09;;;20.54;72.27
7532;BME280;3807;49.030;8.714;2023-07-29T00:19:06;98816.19;;;20.51;72.35
7532;BME280;3807;49.030;8.714;2023-07-29T00:21:31;98812.37;;;20.55;72.25
7532;BME280;3807;49.030;8.714;2023-07-29T00:23:57;98821.22;;;20.52;72.20
7532;BME280;3807;49.030;8.714;2023-07-29T00:26:23;98806.25;;;20.56;72.06
7532;BME280;3807;49.030;8.714;2023-07-29T00:28:48;98799.44;;;20.55;72.02
7532;BME280;3807;49.030;8.714;2023-07-29T00:31:13;98794.94;;;20.57;71.88
7532;BME280;3807;49.030;8.714;2023-07-29T00:33:39;98814.97;;;20.55;72.05
7532;BME280;3807;49.030;8.714;2023-07-29T00:36:04;98812.50;;;20.53;72.02
7532;BME280;3807;49.030;8.714;2023-07-29T00:38:29;98800.97;;;20.57;71.83
7532;BME280;3807;49.030;8.714;2023-07-29T00:40:57;98795.09;;;20.55;71.83
7532;BME280;3807;49.030;8.714;2023-07-29T00:43:22;98795.66;;;20.59;71.63
7532;BME280;3807;49.030;8.714;2023-07-29T00:45:48;98796.47;;;20.59;71.63
7532;BME280;3807;49.030;8.714;2023-07-29T00:48:13;98790.72;;;20.56;71.64
7532;BME280;3807;49.030;8.714;2023-07-29T00:50:39;98791.19;;;20.61;71.46
7532;BME280;3807;49.030;8.714;2023-07-29T00:53:05;98784.50;;;20.58;71.58
7532;BME280;3807;49.030;8.714;2023-07-29T00:55:31;98788.87;;;20.46;71.94
7532;BME280;3807;49.030;8.714;2023-07-29T00:57:57;98776.41;;;20.52;71.67
7532;BME280;3807;49.030;8.714;2023-07-29T01:00:22;98781.59;;;20.52;71.63
7532;BME280;3807;49.030;8.714;2023-07-29T01:02:48;98778.19;;;20.51;71.66
7532;BME280;3807;49.030;8.714;2023-07-29T01:05:16;98776.22;;;20.64;71.31
7532;BME280;3807;49.030;8.714;2023-07-29T01:07:49;98778.06;;;20.53;71.66
7532;BME280;3807;49.030;8.714;2023-07-29T01:10:26;98786.00;;;20.61;71.31
7532;BME280;3807;49.030;8.714;2023-07-29T01:15:30;98779.47;;;20.45;71.82
7532;BME280;3807;49.030;8.714;2023-07-29T01:18:13;98780.63;;;20.53;71.45
7532;BME280;3807;49.030;8.714;2023-07-29T01:20:43;98770.09;;;20.44;71.79
7532;BME280;3807;49.030;8.714;2023-07-29T01:23:09;98763.12;;;20.45;71.73
7532;BME280;3807;49.030;8.714;2023-07-29T01:25:34;98754.00;;;20.41;71.80
7532;BME280;3807;49.030;8.714;2023-07-29T01:27:59;98749.66;;;20.41;71.93
7532;BME280;3807;49.030;8.714;2023-07-29T01:30:31;98739.28;;;20.41;71.87
7532;BME280;3807;49.030;8.714;2023-07-29T01:33:16;98745.28;;;20.42;71.74
7532;BME280;3807;49.030;8.714;2023-07-29T01:35:47;98744.91;;;20.46;71.54
7532;BME280;3807;49.030;8.714;2023-07-29T01:38:22;98752.66;;;20.46;71.52
7532;BME280;3807;49.030;8.714;2023-07-29T01:40:50;98751.03;;;20.45;71.51
7532;BME280;3807;49.030;8.714;2023-07-29T01:43:17;98748.19;;;20.49;71.38
7532;BME280;3807;49.030;8.714;2023-07-29T01:45:48;98749.50;;;20.43;71.49
7532;BME280;3807;49.030;8.714;2023-07-29T01:48:14;98739.28;;;20.41;71.57
7532;BME280;3807;49.030;8.714;2023-07-29T01:50:39;98739.47;;;20.50;71.38
7532;BME280;3807;49.030;8.714;2023-07-29T01:53:04;98737.41;;;20.43;71.42
7532;BME280;3807;49.030;8.714;2023-07-29T01:55:30;98732.09;;;20.45;71.32
7532;BME280;3807;49.030;8.714;2023-07-29T01:57:55;98743.50;;;20.42;71.34
7532;BME280;3807;49.030;8.714;2023-07-29T02:00:21;98743.25;;;20.45;71.18
7532;BME280;3807;49.030;8.714;2023-07-29T02:02:46;98735.09;;;20.40;71.34
7532;BME280;3807;49.030;8.714;2023-07-29T02:05:12;98741.47;;;20.36;71.52
7532;BME280;3807;49.030;8.714;2023-07-29T02:07:37;98744.16;;;20.35;71.52
7532;BME280;3807;49.030;8.714;2023-07-29T02:10:02;98739.44;;;20.40;71.31
7532;BME280;3807;49.030;8.714;2023-07-29T02:12:28;98741.19;;;20.39;71.28
7532;BME280;3807;49.030;8.714;2023-07-29T02:14:53;98739.03;;;20.44;70.97
7532;BME280;3807;49.030;8.714;2023-07-29T02:17:19;98744.22;;;20.44;70.98
7532;BME280;3807;49.030;8.714;2023-07-29T02:19:44;98729.38;;;20.46;70.86
7532;BME280;3807;49.030;8.714;2023-07-29T02:22:12;98733.97;;;20.33;71.35
7532;BME280;3807;49.030;8.714;2023-07-29T02:24:38;98737.47;;;20.32;71.22
7532;BME280;3807;49.030;8.714;2023-07-29T02:27:03;98732.84;;;20.36;71.21
7532;BME280;3807;49.030;8.714;2023-07-29T02:29:29;98738.72;;;20.38;70.99
7532;BME280;3807;49.030;8.714;2023-07-29T02:31:55;98730.06;;;20.49;70.56
7532;BME280;3807;49.030;8.714;2023-07-29T02:34:21;98731.69;;;20.40;70.83
7532;BME280;3807;49.030;8.714;2023-07-29T02:36:46;98737.41;;;20.43;70.68
7532;BME280;3807;49.030;8.714;2023-07-29T02:39:11;98730.59;;;20.42;70.79
7532;BME280;3807;49.030;8.714;2023-07-29T02:41:37;98721.91;;;20.43;70.71
7532;BME280;3807;49.030;8.714;2023-07-29T02:44:02;98723.88;;;20.30;71.18
7532;BME280;3807;49.030;8.714;2023-07-29T02:46:28;98727.81;;;20.34;71.19
7532;BME280;3807;49.030;8.714;2023-07-29T02:48:53;98729.53;;;20.24;71.50
7532;BME280;3807;49.030;8.714;2023-07-29T02:51:19;98728.25;;;20.18;71.92
7532;BME280;3807;49.030;8.714;2023-07-29T02:53:44;98727.59;;;20.16;71.94
7532;BME280;3807;49.030;8.714;2023-07-29T02:56:09;98726.25;;;20.22;71.99
7532;BME280;3807;49.030;8.714;2023-07-29T02:58:36;98718.69;;;20.30;71.25
7532;BME280;3807;49.030;8.714;2023-07-29T03:01:03;98713.72;;;20.17;71.71
7532;BME280;3807;49.030;8.714;2023-07-29T03:03:29;98710.16;;;20.39;70.71
7532;BME280;3807;49.030;8.714;2023-07-29T03:06:02;98706.56;;;20.31;71.08
7532;BME280;3807;49.030;8.714;2023-07-29T03:08:28;98708.66;;;20.37;70.83
7532;BME280;3807;49.030;8.714;2023-07-29T03:10:54;98713.06;;;20.25;71.16
7532;BME280;3807;49.030;8.714;2023-07-29T03:13:20;98717.81;;;20.20;71.32
7532;BME280;3807;49.030;8.714;2023-07-29T03:15:45;98715.97;;;20.32;70.88
7532;BME280;3807;49.030;8.714;2023-07-29T03:18:11;98712.00;;;20.28;70.99
7532;BME280;3807;49.030;8.714;2023-07-29T03:20:36;98698.13;;;20.29;70.98
7532;BME280;3807;49.030;8.714;2023-07-29T03:23:01;98697.81;;;20.22;71.27
7532;BME280;3807;49.030;8.714;2023-07-29T03:25:28;98694.06;;;20.36;70.77
7532;BME280;3807;49.030;8.714;2023-07-29T03:27:54;98701.16;;;20.34;70.61
7532;BME280;3807;49.030;8.714;2023-07-29T03:30:20;98701.25;;;20.32;70.72
7532;BME280;3807;49.030;8.714;2023-07-29T03:32:46;98690.75;;;20.24;70.92
7532;BME280;3807;49.030;8.714;2023-07-29T03:35:11;98694.03;;;20.26;70.96
7532;BME280;3807;49.030;8.714;2023-07-29T03:37:37;98690.66;;;20.35;70.81
7532;BME280;3807;49.030;8.714;2023-07-29T03:40:02;98686.47;;;20.13;71.37
7532;BME280;3807;49.030;8.714;2023-07-29T03:42:28;98689.84;;;20.35;70.57
7532;BME280;3807;49.030;8.714;2023-07-29T03:44:53;98686.78;;;20.20;71.23
7532;BME280;3807;49.030;8.714;2023-07-29T03:47:19;98684.00;;;20.33;71.06
7532;BME280;3807;49.030;8.714;2023-07-29T03:49:44;98685.56;;;20.24;71.76
7532;BME280;3807;49.030;8.714;2023-07-29T03:52:10;98692.88;;;20.40;70.76
7532;BME280;3807;49.030;8.714;2023-07-29T03:54:35;98678.38;;;20.28;70.93
7532;BME280;3807;49.030;8.714;2023-07-29T03:57:01;98675.09;;;20.26;71.11
7532;BME280;3807;49.030;8.714;2023-07-29T03:59:26;98680.47;;;20.34;70.94
7532;BME280;3807;49.030;8.714;2023-07-29T04:01:51;98682.50;;;20.30;70.76
7532;BME280;3807;49.030;8.714;2023-07-29T04:04:17;98677.94;;;20.43;70.24
7532;BME280;3807;49.030;8.714;2023-07-29T04:06:42;98672.66;;;20.24;70.87
7532;BME280;3807;49.030;8.714;2023-07-29T04:09:07;98663.09;;;20.45;69.99
7532;BME280;3807;49.030;8.714;2023-07-29T04:11:33;98673.81;;;20.41;70.14
7532;BME280;3807;49.030;8.714;2023-07-29T04:13:59;98673.38;;;20.36;70.31
7532;BME280;3807;49.030;8.714;2023-07-29T04:16:24;98680.72;;;20.52;69.87
7532;BME280;3807;49.030;8.714;2023-07-29T04:18:49;98682.81;;;20.46;70.03
7532;BME280;3807;49.030;8.714;2023-07-29T04:21:14;98710.44;;;20.36;71.37
7532;BME280;3807;49.030;8.714;2023-07-29T04:23:40;98728.16;;;20.20;72.89
7532;BME280;3807;49.030;8.714;2023-07-29T04:26:05;98724.75;;;20.19;71.77
7532;BME280;3807;49.030;8.714;2023-07-29T04:28:31;98705.28;;;20.15;71.33
7532;BME280;3807;49.030;8.714;2023-07-29T04:30:56;98699.34;;;20.04;71.96
7532;BME280;3807;49.030;8.714;2023-07-29T04:33:22;98703.44;;;20.27;70.90
7532;BME280;3807;49.030;8.714;2023-07-29T04:35:47;98701.41;;;20.31;70.72
7532;BME280;3807;49.030;8.714;2023-07-29T04:38:12;98720.00;;;20.25;70.96
7532;BME280;3807;49.030;8.714;2023-07-29T04:40:38;98721.78;;;20.24;70.94
7532;BME280;3807;49.030;8.714;2023-07-29T04:43:03;98725.50;;;20.31;70.75
7532;BME280;3807;49.030;8.714;2023-07-29T04:45:29;98715.88;;;20.43;71.26
7532;BME280;3807;49.030;8.714;2023-07-29T04:47:55;98708.56;;;20.48;71.40
7532;BME280;3807;49.030;8.714;2023-07-29T04:50:20;98709.97;;;20.31;70.71
7532;BME280;3807;49.030;8.714;2023-07-29T04:52:45;98710.44;;;20.36;70.41
7532;BME280;3807;49.030;8.714;2023-07-29T04:55:11;98716.78;;;20.32;70.50
7532;BME280;3807;49.030;8.714;2023-07-29T04:57:36;98711.16;;;20.48;70.02
7532;BME280;3807;49.030;8.714;2023-07-29T05:00:03;98709.56;;;20.57;69.60
7532;BME280;3807;49.030;8.714;2023-07-29T05:02:28;98709.34;;;20.39;70.04
7532;BME280;3807;49.030;8.714;2023-07-29T05:04:53;98714.34;;;20.52;70.11
7532;BME280;3807;49.030;8.714;2023-07-29T05:07:19;98714.00;;;20.45;70.12
7532;BME280;3807;49.030;8.714;2023-07-29T05:09:44;98709.72;;;20.34;70.32
7532;BME280;3807;49.030;8.714;2023-07-29T05:12:09;98702.84;;;20.44;69.90
7532;BME280;3807;49.030;8.714;2023-07-29T05:14:35;98702.66;;;20.36;71.16
7532;BME280;3807;49.030;8.714;2023-07-29T05:17:00;98698.41;;;20.35;70.36
7532;BME280;3807;49.030;8.714;2023-07-29T05:19:26;98693.09;;;20.27;71.56
7532;BME280;3807;49.030;8.714;2023-07-29T05:21:51;98692.19;;;20.38;70.32
7532;BME280;3807;49.030;8.714;2023-07-29T05:24:17;98698.09;;;20.19;71.15
7532;BME280;3807;49.030;8.714;2023-07-29T05:26:42;98693.13;;;20.37;70.76
7532;BME280;3807;49.030;8.714;2023-07-29T05:29:07;98702.41;;;20.18;71.18
7532;BME280;3807;49.030;8.714;2023-07-29T05:31:33;98706.44;;;20.53;70.07
7532;BME280;3807;49.030;8.714;2023-07-29T05:33:58;98705.63;;;20.32;71.72
7532;BME280;3807;49.030;8.714;2023-07-29T05:36:24;98708.09;;;20.33;71.40
7532;BME280;3807;49.030;8.714;2023-07-29T05:38:50;98712.37;;;20.23;71.79
7532;BME280;3807;49.030;8.714;2023-07-29T05:41:16;98704.09;;;20.29;70.94
7532;BME280;3807;49.030;8.714;2023-07-29T05:43:42;98705.75;;;20.30;71.49
7532;BME280;3807;49.030;8.714;2023-07-29T05:46:09;98710.88;;;20.20;71.51
7532;BME280;3807;49.030;8.714;2023-07-29T05:48:35;98710.38;;;20.27;71.21
7532;BME280;3807;49.030;8.714;2023-07-29T05:51:00;98712.47;;;20.12;72.45
7532;BME280;3807;49.030;8.714;2023-07-29T05:53:25;98708.94;;;20.13;71.81
7532;BME280;3807;49.030;8.714;2023-07-29T05:55:51;98708.53;;;20.17;71.70
7532;BME280;3807;49.030;8.714;2023-07-29T05:58:16;98701.53;;;20.08;72.06
7532;BME280;3807;49.030;8.714;2023-07-29T06:00:42;98703.13;;;20.20;71.72
7532;BME280;3807;49.030;8.714;2023-07-29T06:03:07;98713.84;;;20.16;71.65
7532;BME280;3807;49.030;8.714;2023-07-29T06:05:32;98713.06;;;20.25;71.33
7532;BME280;3807;49.030;8.714;2023-07-29T06:07:58;98718.78;;;20.19;71.54
7532;BME280;3807;49.030;8.714;2023-07-29T06:10:23;98708.44;;;20.19;71.65
7532;BME280;3807;49.030;8.714;2023-07-29T06:12:48;98711.56;;;20.22;71.45
7532;BME280;3807;49.030;8.714;2023-07-29T06:15:14;98726.00;;;20.25;71.47
7532;BME280;3807;49.030;8.714;2023-07-29T06:17:40;98726.00;;;20.25;71.61
7532;BME280;3807;49.030;8.714;2023-07-29T06:20:06;98714.28;;;20.21;71.93
7532;BME280;3807;49.030;8.714;2023-07-29T06:22:31;98713.87;;;20.26;71.65
7532;BME280;3807;49.030;8.714;2023-07-29T06:24:57;98720.16;;;20.23;71.90
7532;BME280;3807;49.030;8.714;2023-07-29T06:27:24;98722.16;;;20.19;72.07
7532;BME280;3807;49.030;8.714;2023-07-29T06:29:50;98728.41;;;20.17;72.21
7532;BME280;3807;49.030;8.714;2023-07-29T06:32:16;98735.13;;;20.29;72.89
7532;BME280;3807;49.030;8.714;2023-07-29T06:34:41;98737.84;;;20.28;71.85
7532;BME280;3807;49.030;8.714;2023-07-29T06:37:06;98739.62;;;20.27;72.13
7532;BME280;3807;49.030;8.714;2023-07-29T06:39:32;98743.75;;;20.30;71.87
7532;BME280;3807;49.030;8.714;2023-07-29T06:41:57;98750.66;;;20.29;71.91
7532;BME280;3807;49.030;8.714;2023-07-29T06:44:23;98747.19;;;20.40;72.04
7532;BME280;3807;49.030;8.714;2023-07-29T06:46:48;98747.75;;;20.43;72.14
7532;BME280;3807;49.030;8.714;2023-07-29T06:49:13;98757.78;;;20.37;71.66
7532;BME280;3807;49.030;8.714;2023-07-29T06:51:39;98757.09;;;20.35;71.82
7532;BME280;3807;49.030;8.714;2023-07-29T06:54:04;98760.00;;;20.41;71.71
7532;BME280;3807;49.030;8.714;2023-07-29T06:56:30;98768.81;;;20.39;71.70
7532;BME280;3807;49.030;8.714;2023-07-29T06:58:55;98771.03;;;20.43;71.64
7532;BME280;3807;49.030;8.714;2023-07-29T07:01:20;98776.88;;;20.45;71.61
7532;BME280;3807;49.030;8.714;2023-07-29T07:03:46;98769.84;;;20.48;71.52
7532;BME280;3807;49.030;8.714;2023-07-29T07:06:11;98766.53;;;20.45;71.65
7532;BME280;3807;49.030;8.714;2023-07-29T07:08:36;98764.19;;;20.54;71.43
7532;BME280;3807;49.030;8.714;2023-07-29T07:11:02;98761.06;;;20.60;71.62
7532;BME280;3807;49.030;8.714;2023-07-29T07:13:27;98769.03;;;20.68;71.21
7532;BME280;3807;49.030;8.714;2023-07-29T07:15:56;98754.81;;;20.62;71.24
7532;BME280;3807;49.030;8.714;2023-07-29T07:18:22;98750.22;;;20.66;71.66
7532;BME280;3807;49.030;8.714;2023-07-29T07:20:51;98758.78;;;20.66;71.90
7532;BME280;3807;49.030;8.714;2023-07-29T07:23:17;98755.25;;;20.67;71.64
7532;BME280;3807;49.030;8.714;2023-07-29T07:25:42;98744.63;;;20.70;71.86
7532;BME280;3807;49.030;8.714;2023-07-29T07:28:08;98737.31;;;20.76;71.40
7532;BME280;3807;49.030;8.714;2023-07-29T07:30:34;98740.16;;;20.73;71.31
7532;BME280;3807;49.030;8.714;2023-07-29T07:33:00;98737.88;;;20.79;72.55
7532;BME280;3807;49.030;8.714;2023-07-29T07:35:25;98754.06;;;20.81;71.60
7532;BME280;3807;49.030;8.714;2023-07-29T07:37:50;98752.75;;;20.87;71.34
7532;BME280;3807;49.030;8.714;2023-07-29T07:40:16;98753.84;;;20.94;73.21
7532;BME280;3807;49.030;8.714;2023-07-29T07:42:41;98755.22;;;20.98;72.95
7532;BME280;3807;49.030;8.714;2023-07-29T07:45:06;98754.97;;;21.01;73.58
7532;BME280;3807;49.030;8.714;2023-07-29T07:47:32;98757.31;;;21.04;73.96
7532;BME280;3807;49.030;8.714;2023-07-29T07:49:57;98757.91;;;21.17;77.39
7532;BME280;3807;49.030;8.714;2023-07-29T07:52:22;98759.22;;;21.12;73.95
7532;BME280;3807;49.030;8.714;2023-07-29T07:54:52;98753.69;;;21.16;79.02
7532;BME280;3807;49.030;8.714;2023-07-29T07:57:18;98758.72;;;21.18;75.12
7532;BME280;3807;49.030;8.714;2023-07-29T07:59:43;98740.06;;;21.24;75.33
7532;BME280;3807;49.030;8.714;2023-07-29T08:02:08;98741.81;;;21.33;78.08
7532;BME280;3807;49.030;8.714;2023-07-29T08:04:34;98748.94;;;21.31;78.55
7532;BME280;3807;49.030;8.714;2023-07-29T08:06:59;98749.84;;;21.30;76.99
7532;BME280;3807;49.030;8.714;2023-07-29T08:09:24;98754.16;;;21.41;79.66
7532;BME280;3807;49.030;8.714;2023-07-29T08:11:50;98754.09;;;21.22;77.22
7532;BME280;3807;49.030;8.714;2023-07-29T08:14:15;98756.47;;;21.34;80.31
7532;BME280;3807;49.030;8.714;2023-07-29T08:16:40;98764.28;;;21.23;77.25
7532;BME280;3807;49.030;8.714;2023-07-29T08:19:05;98769.28;;;21.36;77.27
7532;BME280;3807;49.030;8.714;2023-07-29T08:21:32;98777.75;;;21.48;80.42
7532;BME280;3807;49.030;8.714;2023-07-29T08:23:57;98776.78;;;21.39;80.40
7532;BME280;3807;49.030;8.714;2023-07-29T08:26:22;98780.63;;;21.54;80.20
7532;BME280;3807;49.030;8.714;2023-07-29T08:28:48;98776.81;;;21.49;79.34
7532;BME280;3807;49.030;8.714;2023-07-29T08:31:13;98776.53;;;21.61;78.26
7532;BME280;3807;49.030;8.714;2023-07-29T08:33:39;98778.59;;;21.48;78.63
7532;BME280;3807;49.030;8.714;2023-07-29T08:36:04;98779.38;;;21.39;79.30
7532;BME280;3807;49.030;8.714;2023-07-29T08:38:30;98777.81;;;21.27;80.48
7532;BME280;3807;49.030;8.714;2023-07-29T08:41:16;98783.63;;;21.50;79.27
7532;BME280;3807;49.030;8.714;2023-07-29T08:43:56;98788.13;;;21.57;80.82
7532;BME280;3807;49.030;8.714;2023-07-29T08:46:24;98794.13;;;21.58;79.38
7532;BME280;3807;49.030;8.714;2023-07-29T08:48:49;98798.25;;;21.70;80.04
7532;BME280;3807;49.030;8.714;2023-07-29T08:51:17;98800.56;;;21.73;80.26
7532;BME280;3807;49.030;8.714;2023-07-29T08:53:42;98806.03;;;21.70;79.25
7532;BME280;3807;49.030;8.714;2023-07-29T08:56:08;98805.84;;;21.52;80.54
7532;BME280;3807;49.030;8.714;2023-07-29T08:58:35;98801.19;;;21.46;81.27
7532;BME280;3807;49.030;8.714;2023-07-29T09:01:00;98801.50;;;21.72;80.33
7532;BME280;3807;49.030;8.714;2023-07-29T09:03:26;98800.81;;;21.60;79.93
7532;BME280;3807;49.030;8.714;2023-07-29T09:05:52;98805.03;;;21.61;81.01
7532;BME280;3807;49.030;8.714;2023-07-29T09:08:18;98801.38;;;21.64;81.69
7532;BME280;3807;49.030;8.714;2023-07-29T09:10:44;98790.19;;;21.63;80.88
7532;BME280;3807;49.030;8.714;2023-07-29T09:13:09;98788.81;;;21.59;81.80
7532;BME280;3807;49.030;8.714;2023-07-29T09:15:35;98806.25;;;21.57;82.35
7532;BME280;3807;49.030;8.714;2023-07-29T09:18:19;98808.03;;;21.57;81.41
7532;BME280;3807;49.030;8.714;2023-07-29T09:20:48;98818.72;;;21.33;83.30
7532;BME280;3807;49.030;8.714;2023-07-29T09:23:14;98819.25;;;21.27;84.77
7532;BME280;3807;49.030;8.714;2023-07-29T09:25:39;98805.56;;;21.46;82.48
7532;BME280;3807;49.030;8.714;2023-07-29T09:28:10;98813.19;;;21.47;83.74
7532;BME280;3807;49.030;8.714;2023-07-29T09:30:41;98805.69;;;21.44;83.01
7532;BME280;3807;49.030;8.714;2023-07-29T09:33:08;98817.72;;;21.45;82.92
7532;BME280;3807;49.030;8.714;2023-07-29T09:35:35;98810.22;;;21.52;81.24
7532;BME280;3807;49.030;8.714;2023-07-29T09:38:01;98812.16;;;21.69;80.21
7532;BME280;3807;49.030;8.714;2023-07-29T09:40:27;98815.31;;;21.73;81.11
7532;BME280;3807;49.030;8.714;2023-07-29T09:42:54;98811.19;;;21.89;79.23
7532;BME280;3807;49.030;8.714;2023-07-29T09:45:23;98815.84;;;21.96;80.84
7532;BME280;3807;49.030;8.714;2023-07-29T09:47:50;98815.59;;;21.99;79.51
7532;BME280;3807;49.030;8.714;2023-07-29T09:50:16;98814.63;;;22.00;78.58
7532;BME280;3807;49.030;8.714;2023-07-29T09:52:41;98813.53;;;21.93;81.39
7532;BME280;3807;49.030;8.714;2023-07-29T09:55:09;98816.53;;;21.88;80.50
7532;BME280;3807;49.030;8.714;2023-07-29T09:57:34;98820.22;;;21.95;80.63
7532;BME280;3807;49.030;8.714;2023-07-29T10:00:01;98811.22;;;21.99;81.48
7532;BME280;3807;49.030;8.714;2023-07-29T10:02:30;98812.44;;;22.05;81.59
7532;BME280;3807;49.030;8.714;2023-07-29T10:04:56;98813.53;;;22.02;80.20
7532;BME280;3807;49.030;8.714;2023-07-29T10:07:24;98817.38;;;22.08;80.46
7532;BME280;3807;49.030;8.714;2023-07-29T10:09:51;98812.06;;;21.90;82.72
7532;BME280;3807;49.030;8.714;2023-07-29T10:12:18;98801.09;;;21.96;81.40
7532;BME280;3807;49.030;8.714;2023-07-29T10:14:43;98796.19;;;22.03;81.59
7532;BME280;3807;49.030;8.714;2023-07-29T10:17:09;98808.78;;;22.07;82.15
7532;BME280;3807;49.030;8.714;2023-07-29T10:19:35;98805.25;;;22.18;81.70
7532;BME280;3807;49.030;8.714;2023-07-29T10:22:03;98813.00;;;22.38;80.71
7532;BME280;3807;49.030;8.714;2023-07-29T10:24:32;98810.28;;;22.39;81.02
7532;BME280;3807;49.030;8.714;2023-07-29T10:27:01;98817.88;;;22.60;81.45
7532;BME280;3807;49.030;8.714;2023-07-29T10:29:38;98814.34;;;22.51;80.59
7532;BME280;3807;49.030;8.714;2023-07-29T10:32:04;98807.62;;;22.68;80.15
7532;BME280;3807;49.030;8.714;2023-07-29T10:34:31;98815.50;;;22.76;79.91
7532;BME280;3807;49.030;8.714;2023-07-29T10:36:57;98811.81;;;22.79;79.94
7532;BME280;3807;49.030;8.714;2023-07-29T10:39:24;98815.88;;;22.91;80.89
7532;BME280;3807;49.030;8.714;2023-07-29T10:42:03;98814.31;;;22.71;80.14
7532;BME280;3807;49.030;8.714;2023-07-29T10:47:27;98818.09;;;22.76;80.88
7532;BME280;3807;49.030;8.714;2023-07-29T10:49:56;98812.78;;;22.78;80.38
7532;BME280;3807;49.030;8.714;2023-07-29T10:52:52;98802.78;;;22.83;80.32
7532;BME280;3807;49.030;8.714;2023-07-29T10:55:27;98805.09;;;22.96;79.70
7532;BME280;3807;49.030;8.714;2023-07-29T10:58:04;98803.41;;;23.04;79.08
7532;BME280;3807;49.030;8.714;2023-07-29T11:00:30;98801.34;;;23.36;78.57
7532;BME280;3807;49.030;8.714;2023-07-29T11:03:00;98794.81;;;23.32;77.80
7532;BME280;3807;49.030;8.714;2023-07-29T11:05:26;98798.44;;;23.39;78.13
7532;BME280;3807;49.030;8.714;2023-07-29T11:07:52;98792.38;;;23.48;77.60
7532;BME280;3807;49.030;8.714;2023-07-29T11:10:17;98781.94;;;23.58;76.60
7532;BME280;3807;49.030;8.714;2023-07-29T11:12:50;98786.31;;;23.57;77.15
7532;BME280;3807;49.030;8.714;2023-07-29T11:20:11;98786.78;;;23.70;76.64
7532;BME280;3807;49.030;8.714;2023-07-29T11:22:37;98783.22;;;24.07;75.86
7532;BME280;3807;49.030;8.714;2023-07-29T11:25:03;98785.75;;;24.17;74.08
7532;BME280;3807;49.030;8.714;2023-07-29T11:27:30;98801.78;;;24.12;74.75
7532;BME280;3807;49.030;8.714;2023-07-29T11:30:10;98786.50;;;23.91;75.82
7532;BME280;3807;49.030;8.714;2023-07-29T11:32:36;98787.91;;;24.04;74.57
7532;BME280;3807;49.030;8.714;2023-07-29T11:35:09;98785.84;;;23.89;74.87
7532;BME280;3807;49.030;8.714;2023-07-29T11:37:36;98781.66;;;24.14;73.92
7532;BME280;3807;49.030;8.714;2023-07-29T11:40:02;98790.53;;;24.30;72.15
7532;BME280;3807;49.030;8.714;2023-07-29T11:42:31;98785.84;;;24.33;72.74
7532;BME280;3807;49.030;8.714;2023-07-29T11:44:57;98774.75;;;24.49;71.77
7532;BME280;3807;49.030;8.714;2023-07-29T11:47:23;98776.88;;;24.54;71.19
7532;BME280;3807;49.030;8.714;2023-07-29T11:49:49;98781.59;;;24.50;71.48
7532;BME280;3807;49.030;8.714;2023-07-29T11:52:14;98766.97;;;24.83;70.29
7532;BME280;3807;49.030;8.714;2023-07-29T11:54:44;98761.19;;;24.71;70.01
7532;BME280;3807;49.030;8.714;2023-07-29T11:57:09;98759.37;;;24.64;70.03
7532;BME280;3807;49.030;8.714;2023-07-29T11:59:36;98765.38;;;24.90;68.74
7532;BME280;3807;49.030;8.714;2023-07-29T12:02:05;98763.09;;;24.95;69.20
7532;BME280;3807;49.030;8.714;2023-07-29T12:04:32;98773.47;;;25.13;68.00
7532;BME280;3807;49.030;8.714;2023-07-29T12:06:58;98769.59;;;25.17;67.08
7532;BME280;3807;49.030;8.714;2023-07-29T12:09:25;98771.34;;;25.17;67.37
7532;BME280;3807;49.030;8.714;2023-07-29T12:11:52;98775.31;;;25.37;66.85
7532;BME280;3807;49.030;8.714;2023-07-29T12:14:17;98768.53;;;25.61;65.69
7532;BME280;3807;49.030;8.714;2023-07-29T12:16:43;98772.31;;;25.75;65.77
7532;BME280;3807;49.030;8.714;2023-07-29T12:19:12;98768.72;;;25.67;65.65
7532;BME280;3807;49.030;8.714;2023-07-29T12:21:38;98758.91;;;25.70;65.39
7532;BME280;3807;49.030;8.714;2023-07-29T12:24:03;98769.72;;;25.83;65.04
7532;BME280;3807;49.030;8.714;2023-07-29T12:26:29;98770.38;;;25.85;64.48
7532;BME280;3807;49.030;8.714;2023-07-29T12:28:54;98763.03;;;25.97;63.85
7532;BME280;3807;49.030;8.714;2023-07-29T12:31:21;98762.22;;;26.21;63.69
7532;BME280;3807;49.030;8.714;2023-07-29T12:33:47;98756.47;;;26.25;63.53
7532;BME280;3807;49.030;8.714;2023-07-29T12:36:12;98754.22;;;26.22;63.07
7532;BME280;3807;49.030;8.714;2023-07-29T12:38:37;98753.06;;;26.33;62.34
7532;BME280;3807;49.030;8.714;2023-07-29T12:41:03;98757.31;;;26.50;62.22
7532;BME280;3807;49.030;8.714;2023-07-29T12:43:28;98754.16;;;26.63;61.03
7532;BME280;3807;49.030;8.714;2023-07-29T12:45:54;98751.34;;;26.73;61.13
7532;BME280;3807;49.030;8.714;2023-07-29T12:48:19;98742.50;;;26.82;60.23
7532;BME280;3807;49.030;8.714;2023-07-29T12:50:45;98752.41;;;26.95;60.26
7532;BME280;3807;49.030;8.714;2023-07-29T12:53:11;98754.94;;;27.11;60.10
7532;BME280;3807;49.030;8.714;2023-07-29T12:55:36;98757.00;;;26.93;61.18
7532;BME280;3807;49.030;8.714;2023-07-29T12:58:02;98755.88;;;26.87;60.86
7532;BME280;3807;49.030;8.714;2023-07-29T13:00:27;98740.06;;;27.12;60.09
7532;BME280;3807;49.030;8.714;2023-07-29T13:02:53;98753.16;;;27.12;59.87
7532;BME280;3807;49.030;8.714;2023-07-29T13:05:19;98745.88;;;26.99;60.34
7532;BME280;3807;49.030;8.714;2023-07-29T13:07:44;98746.88;;;26.90;59.15
7532;BME280;3807;49.030;8.714;2023-07-29T13:10:10;98749.66;;;26.88;59.79
7532;BME280;3807;49.030;8.714;2023-07-29T13:12:35;98747.88;;;26.80;59.78
7532;BME280;3807;49.030;8.714;2023-07-29T13:15:01;98745.34;;;27.03;57.40
7532;BME280;3807;49.030;8.714;2023-07-29T13:17:27;98749.78;;;27.03;57.33
7532;BME280;3807;49.030;8.714;2023-07-29T13:19:52;98753.84;;;27.14;57.23
7532;BME280;3807;49.030;8.714;2023-07-29T13:22:17;98749.63;;;27.36;56.27
7532;BME280;3807;49.030;8.714;2023-07-29T13:24:43;98732.72;;;27.46;55.98
7532;BME280;3807;49.030;8.714;2023-07-29T13:27:08;98736.66;;;27.42;56.07
7532;BME280;3807;49.030;8.714;2023-07-29T13:29:33;98741.38;;;27.70;55.36